logo
Search for airport 
image banner adimage banner adimage banner ad
image banner ad

LLSM - Tel-Hashomer Hospital

Located in , Israel

ICAO - , IATA -

Data provided by Airmate  

General information

Coordinates: N32°2'36" E34°50'31"
Elevation is 151 feet MSL.
 
View others Airports in Tel Aviv District

Operational data

Special qualification required
Current time UTC:
Current local time:
Weather at : LLBG - Tel-Aviv/Ben-Gurion ( 6 km )
METAR: LLBG 130550Z VRB02KT 9999 BKN028 20/15 Q1015 NOSIG
TAF: TAF LLBG 130504Z 1306/1406 VRB03KT 9999 SCT030 TEMPO 1306/1307 BKN025 BECMG 1308/1310 30010KT FEW030 PROB30 TEMPO 1313/1315 SCT020 BECMG 1315/1317 VRB03KT 7000 SCT018 PROB30 TEMPO 1321/1405 5000 BR BKN015 TX24/1311Z TN15/1403Z
View NOTAMs / SUP AIP / TFR affecting this airport [VIEW]
Communications frequencies: [VIEW]

Runways:

Airport contact information

Address: Israel

Satellite view of LLSM